createdAt,value
2017-12-13T00:02:19.403Z,2.80
2017-12-13T00:04:47.623Z,2.70
2017-12-13T00:07:15.051Z,2.80
2017-12-13T00:09:42.590Z,2.70
2017-12-13T00:12:09.962Z,2.70
2017-12-13T00:14:37.399Z,2.70
2017-12-13T00:17:05.595Z,2.60
2017-12-13T00:19:33.026Z,2.60
2017-12-13T00:22:01.935Z,2.40
2017-12-13T00:24:29.778Z,2.30
2017-12-13T00:26:57.975Z,2.20
2017-12-13T00:29:25.410Z,2.20
2017-12-13T00:31:53.607Z,2.30
2017-12-13T00:34:21.041Z,2.30
2017-12-13T00:36:49.239Z,2.40
2017-12-13T00:39:16.671Z,2.40
2017-12-13T00:41:44.870Z,2.40
2017-12-13T00:44:12.302Z,2.40
2017-12-13T00:46:40.529Z,2.40
2017-12-13T00:49:07.962Z,2.40
2017-12-13T00:51:35.898Z,2.30
2017-12-13T00:54:04.098Z,2.20
2017-12-13T00:56:31.578Z,2.20
2017-12-13T00:58:59.039Z,2.10
2017-12-13T01:01:27.214Z,2.10
2017-12-13T01:03:55.183Z,2.00
2017-12-13T01:06:22.645Z,2.00
2017-12-13T01:08:50.074Z,2.10
2017-12-13T01:11:17.515Z,2.10
2017-12-13T01:13:44.967Z,2.10
2017-12-13T01:16:12.467Z,2.10
2017-12-13T01:18:39.917Z,2.20
2017-12-13T01:21:07.461Z,2.20
2017-12-13T01:23:34.943Z,2.20
2017-12-13T01:26:02.394Z,2.30
2017-12-13T01:28:29.854Z,2.30
2017-12-13T01:30:57.285Z,2.30
2017-12-13T01:33:24.762Z,2.30
2017-12-13T01:35:58.963Z,2.30
2017-12-13T01:38:26.414Z,2.30
2017-12-13T01:40:53.896Z,2.20
2017-12-13T01:43:21.319Z,2.20
2017-12-13T01:45:48.755Z,2.20
2017-12-13T01:48:17.759Z,2.20
2017-12-13T01:50:45.359Z,2.20
2017-12-13T01:53:12.787Z,2.20
2017-12-13T01:55:40.219Z,2.20
2017-12-13T01:58:08.427Z,2.30
2017-12-13T02:00:35.870Z,2.30
2017-12-13T02:03:03.354Z,2.30
2017-12-13T02:05:30.814Z,2.20
2017-12-13T02:07:58.254Z,2.20
2017-12-13T02:10:25.688Z,2.30
2017-12-13T02:12:53.183Z,2.20
2017-12-13T02:15:20.827Z,2.20
2017-12-13T02:17:48.267Z,2.20
2017-12-13T02:20:15.715Z,2.10
2017-12-13T02:22:43.931Z,2.10
2017-12-13T02:27:44.375Z,2.00
2017-12-13T02:30:11.808Z,1.90
2017-12-13T02:32:39.290Z,1.90
2017-12-13T02:35:06.774Z,1.90
2017-12-13T02:37:34.298Z,1.90
2017-12-13T02:40:13.848Z,1.90
2017-12-13T02:42:41.291Z,1.90
2017-12-13T02:45:08.730Z,1.90
2017-12-13T02:47:36.210Z,1.90
2017-12-13T02:50:03.649Z,1.90
2017-12-13T02:52:31.082Z,1.90
2017-12-13T02:54:58.531Z,1.90
2017-12-13T02:57:26.739Z,1.90
2017-12-13T02:59:54.170Z,1.90
2017-12-13T03:02:21.604Z,1.90
2017-12-13T03:04:49.407Z,1.90
2017-12-13T03:07:16.847Z,1.90
2017-12-13T03:09:44.284Z,2.00
2017-12-13T03:12:12.486Z,2.00
2017-12-13T03:14:39.917Z,1.90
2017-12-13T03:17:08.590Z,1.90
2017-12-13T03:19:36.118Z,1.80
2017-12-13T03:22:03.675Z,1.90
2017-12-13T03:24:31.112Z,1.90
2017-12-13T03:26:58.586Z,1.80
2017-12-13T03:29:26.015Z,1.80
2017-12-13T03:31:53.510Z,1.80
2017-12-13T03:34:20.935Z,1.80
2017-12-13T03:36:48.410Z,1.80
2017-12-13T03:39:15.852Z,1.80
2017-12-13T03:41:43.295Z,1.80
2017-12-13T03:44:10.722Z,1.80
2017-12-13T03:46:39.041Z,1.80
2017-12-13T03:49:06.467Z,1.80
2017-12-13T03:51:35.562Z,1.80
2017-12-13T03:54:03.783Z,1.90
2017-12-13T03:56:31.242Z,1.80
2017-12-13T03:58:58.699Z,1.90
2017-12-13T04:01:26.155Z,1.90
2017-12-13T04:03:53.615Z,1.90
2017-12-13T04:06:21.048Z,2.00
2017-12-13T04:08:48.478Z,2.00
2017-12-13T04:11:16.679Z,2.00
2017-12-13T04:13:44.115Z,2.00
2017-12-13T04:16:11.547Z,1.90
2017-12-13T04:18:39.741Z,1.90
2017-12-13T04:21:07.239Z,1.90
2017-12-13T04:23:34.701Z,1.90
2017-12-13T04:26:02.127Z,1.90
2017-12-13T04:28:29.565Z,1.90
2017-12-13T04:30:57.066Z,1.90
2017-12-13T04:33:24.527Z,1.90
2017-12-13T04:35:51.961Z,1.90
2017-12-13T04:38:19.397Z,1.90
2017-12-13T04:40:46.835Z,1.90
2017-12-13T04:43:15.044Z,1.80
2017-12-13T04:45:42.474Z,1.80
2017-12-13T04:48:10.696Z,1.90
2017-12-13T04:50:38.151Z,1.90
2017-12-13T04:53:05.610Z,1.90
2017-12-13T04:55:33.060Z,1.90
2017-12-13T04:58:00.486Z,1.90
2017-12-13T05:00:27.927Z,1.90
2017-12-13T05:02:56.155Z,1.90
2017-12-13T05:05:24.311Z,1.90
2017-12-13T05:07:51.745Z,1.90
2017-12-13T05:10:19.186Z,2.00
2017-12-13T05:12:47.391Z,1.90
2017-12-13T05:15:14.952Z,1.90
2017-12-13T05:17:42.423Z,1.90
2017-12-13T05:20:09.883Z,2.00
2017-12-13T05:22:37.338Z,1.90
2017-12-13T05:25:04.805Z,1.90
2017-12-13T05:27:32.237Z,1.90
2017-12-13T05:29:59.767Z,1.90
2017-12-13T05:32:27.964Z,1.90
2017-12-13T05:34:55.447Z,1.90
2017-12-13T05:37:22.870Z,1.90
2017-12-13T05:39:51.048Z,1.90
2017-12-13T05:42:18.479Z,1.90
2017-12-13T05:44:46.693Z,1.90
2017-12-13T05:47:14.125Z,1.90
2017-12-13T05:49:41.936Z,1.90
2017-12-13T05:52:09.363Z,1.80
2017-12-13T05:54:36.844Z,1.90
2017-12-13T05:57:04.296Z,1.80
2017-12-13T05:59:32.539Z,1.90
2017-12-13T06:02:00.522Z,1.80
2017-12-13T06:04:27.958Z,1.80
2017-12-13T06:06:55.395Z,1.80
2017-12-13T06:09:23.619Z,1.80
2017-12-13T06:11:51.059Z,1.80
2017-12-13T06:14:18.543Z,1.80
2017-12-13T06:16:46.507Z,1.90
2017-12-13T06:19:13.948Z,1.90
2017-12-13T06:21:41.387Z,1.90
2017-12-13T06:24:08.819Z,1.90
2017-12-13T06:26:37.039Z,2.00
2017-12-13T06:29:04.470Z,1.90
2017-12-13T06:31:31.906Z,2.00
2017-12-13T06:34:00.130Z,2.00
2017-12-13T06:36:27.570Z,2.00
2017-12-13T06:38:55.051Z,2.10
2017-12-13T06:41:22.590Z,2.00
2017-12-13T06:43:50.003Z,2.00
2017-12-13T06:46:18.211Z,2.00
2017-12-13T06:48:45.651Z,2.00
2017-12-13T06:51:13.854Z,2.00
2017-12-13T06:53:41.291Z,1.90
2017-12-13T06:56:08.963Z,1.90
2017-12-13T06:58:36.443Z,1.80
2017-12-13T07:01:03.874Z,1.80
2017-12-13T07:03:31.302Z,1.80
2017-12-13T07:05:59.509Z,1.80
2017-12-13T07:08:26.990Z,1.80
2017-12-13T07:10:54.419Z,1.80
2017-12-13T07:13:21.916Z,1.80
2017-12-13T07:15:49.354Z,1.70
2017-12-13T07:18:16.810Z,1.70
2017-12-13T07:20:44.229Z,1.70
2017-12-13T07:23:11.668Z,1.80
2017-12-13T07:28:30.407Z,1.90
2017-12-13T07:30:57.842Z,2.00
2017-12-13T07:33:25.295Z,2.00
2017-12-13T07:35:52.726Z,2.00
2017-12-13T07:38:20.179Z,2.00
2017-12-13T07:40:48.379Z,2.10
2017-12-13T07:43:15.824Z,2.10
2017-12-13T07:45:43.260Z,2.10
2017-12-13T07:48:11.470Z,2.10
2017-12-13T07:50:38.910Z,2.10
2017-12-13T07:53:07.106Z,2.10
2017-12-13T07:55:34.567Z,2.10
2017-12-13T08:00:53.629Z,2.10
2017-12-13T08:03:21.110Z,2.10
2017-12-13T08:05:48.567Z,2.20
2017-12-13T08:08:16.010Z,2.20
2017-12-13T08:16:25.689Z,2.30
2017-12-13T08:18:53.163Z,2.30
2017-12-13T08:21:20.608Z,2.30
2017-12-13T08:23:48.050Z,2.30
2017-12-13T08:26:15.811Z,2.30
2017-12-13T08:28:43.278Z,2.30
2017-12-13T08:31:10.751Z,2.40
2017-12-13T08:33:38.159Z,2.50
2017-12-13T08:36:05.586Z,2.50
2017-12-13T08:38:33.111Z,2.70
2017-12-13T08:41:00.975Z,2.70
2017-12-13T08:43:28.417Z,2.80
2017-12-13T08:45:55.843Z,2.70
2017-12-13T08:48:24.044Z,2.80
2017-12-13T08:50:51.501Z,2.80
2017-12-13T08:53:18.974Z,2.80
2017-12-13T08:55:46.453Z,2.80
2017-12-13T08:58:25.679Z,2.80
2017-12-13T09:00:53.111Z,2.80
2017-12-13T09:03:20.546Z,2.90
2017-12-13T09:05:48.038Z,2.90
2017-12-13T09:08:15.475Z,3.00
2017-12-13T09:10:42.947Z,3.00
2017-12-13T09:13:10.638Z,3.00
2017-12-13T09:15:38.066Z,3.00
2017-12-13T09:18:05.503Z,3.10
2017-12-13T09:20:32.994Z,3.10
2017-12-13T09:23:00.432Z,3.10
2017-12-13T09:25:27.868Z,3.10
2017-12-13T09:27:55.347Z,3.20
2017-12-13T09:30:22.783Z,3.30
2017-12-13T09:32:50.213Z,3.30
2017-12-13T09:35:19.230Z,3.40
2017-12-13T09:37:47.122Z,3.40
2017-12-13T09:40:14.559Z,3.50
2017-12-13T09:42:42.036Z,3.50
2017-12-13T09:45:10.107Z,3.50
2017-12-13T09:47:37.541Z,3.50
2017-12-13T09:50:04.978Z,3.50
2017-12-13T09:52:32.406Z,3.60
2017-12-13T09:54:59.847Z,3.60
2017-12-13T09:57:27.282Z,3.70
2017-12-13T09:59:54.742Z,3.70
2017-12-13T10:02:22.175Z,3.80
2017-12-13T10:04:49.654Z,3.90
2017-12-13T10:07:17.087Z,3.90
2017-12-13T10:09:44.566Z,3.90
2017-12-13T10:12:12.542Z,4.00
2017-12-13T10:14:39.979Z,4.00
2017-12-13T10:17:07.406Z,4.00
2017-12-13T10:19:34.842Z,4.10
2017-12-13T10:22:03.043Z,4.20
2017-12-13T10:24:30.538Z,4.20
2017-12-13T10:26:57.998Z,4.30
2017-12-13T10:29:25.434Z,4.40
2017-12-13T10:31:52.866Z,4.40
2017-12-13T10:34:20.300Z,4.50
2017-12-13T10:36:48.129Z,4.50
2017-12-13T10:39:15.554Z,4.50
2017-12-13T10:41:43.511Z,4.50
2017-12-13T10:44:11.008Z,4.60
2017-12-13T10:46:38.443Z,4.60
2017-12-13T10:49:05.927Z,4.60
2017-12-13T10:51:33.379Z,4.70
2017-12-13T10:54:00.834Z,4.70
2017-12-13T10:56:28.272Z,4.70
2017-12-13T10:58:55.746Z,4.70
2017-12-13T11:01:23.185Z,4.80
2017-12-13T11:03:50.611Z,4.80
2017-12-13T11:06:18.819Z,5.00
2017-12-13T11:08:46.254Z,4.90
2017-12-13T11:11:13.751Z,5.00
2017-12-13T11:13:41.178Z,5.00
2017-12-13T11:16:08.615Z,5.00
2017-12-13T11:18:36.826Z,5.10
2017-12-13T11:21:04.271Z,5.10
2017-12-13T11:23:31.742Z,5.10
2017-12-13T11:25:59.187Z,5.20
2017-12-13T11:28:26.744Z,5.30
2017-12-13T11:30:54.158Z,5.30
2017-12-13T11:33:22.358Z,5.30
2017-12-13T11:35:49.842Z,5.30
2017-12-13T11:38:17.278Z,5.40
2017-12-13T11:40:44.705Z,5.50
2017-12-13T11:43:12.906Z,5.50
2017-12-13T11:45:40.395Z,5.50
2017-12-13T11:48:07.831Z,5.50
2017-12-13T11:50:35.303Z,5.60
2017-12-13T11:53:02.743Z,5.60
2017-12-13T11:55:30.217Z,5.70
2017-12-13T11:57:57.675Z,5.80
2017-12-13T12:00:25.102Z,5.80
2017-12-13T12:02:52.698Z,5.90
2017-12-13T12:05:20.119Z,6.00
2017-12-13T12:07:47.607Z,5.80
2017-12-13T12:10:15.604Z,5.80
2017-12-13T12:12:43.030Z,5.90
2017-12-13T12:15:10.466Z,5.90
2017-12-13T12:17:37.904Z,5.90
2017-12-13T12:20:05.395Z,5.90
2017-12-13T12:22:32.856Z,5.90
2017-12-13T12:25:00.486Z,5.90
2017-12-13T12:27:27.967Z,6.00
2017-12-13T12:29:55.434Z,5.90
2017-12-13T12:32:22.859Z,5.90
2017-12-13T12:34:50.338Z,5.90
2017-12-13T12:37:17.766Z,5.90
2017-12-13T12:39:45.259Z,5.90
2017-12-13T12:42:12.732Z,5.80
2017-12-13T12:44:40.182Z,5.80
2017-12-13T12:47:07.722Z,5.80
2017-12-13T12:49:35.595Z,5.80
2017-12-13T12:52:03.045Z,5.80
2017-12-13T12:54:30.507Z,5.80
2017-12-13T12:56:57.966Z,5.80
2017-12-13T13:01:58.356Z,5.80
2017-12-13T13:04:26.676Z,5.80
2017-12-13T13:06:54.078Z,5.70
2017-12-13T13:09:22.306Z,5.80
2017-12-13T13:11:49.780Z,5.80
2017-12-13T13:14:17.206Z,5.70
2017-12-13T13:16:44.679Z,5.70
2017-12-13T13:19:12.131Z,5.70
2017-12-13T13:21:39.566Z,5.70
2017-12-13T13:24:07.000Z,5.70
2017-12-13T13:26:35.203Z,5.70
2017-12-13T13:29:02.683Z,5.70
2017-12-13T13:31:30.161Z,5.70
2017-12-13T13:33:57.619Z,5.70
2017-12-13T13:36:25.151Z,5.80
2017-12-13T13:38:52.582Z,5.80
2017-12-13T13:41:20.018Z,5.80
2017-12-13T13:43:48.211Z,5.80
2017-12-13T13:46:15.699Z,5.80
2017-12-13T13:48:43.153Z,5.90
2017-12-13T13:51:10.648Z,5.90
2017-12-13T13:53:38.108Z,5.90
2017-12-13T13:56:05.622Z,5.90
2017-12-13T13:58:33.064Z,5.90
2017-12-13T14:01:00.533Z,5.90
2017-12-13T14:03:28.302Z,5.90
2017-12-13T14:05:55.785Z,5.90
2017-12-13T14:08:23.249Z,5.80
2017-12-13T14:10:50.770Z,5.80
2017-12-13T14:13:18.199Z,5.80
2017-12-13T14:15:45.706Z,5.90
2017-12-13T14:18:14.679Z,5.80
2017-12-13T14:20:42.130Z,5.80
2017-12-13T14:23:09.595Z,5.80
2017-12-13T14:25:37.371Z,5.80
2017-12-13T14:28:05.765Z,5.80
2017-12-13T14:30:33.993Z,5.80
2017-12-13T14:33:01.460Z,5.80
2017-12-13T14:35:28.962Z,5.80
2017-12-13T14:37:56.483Z,5.80
2017-12-13T14:40:23.939Z,5.80
2017-12-13T14:42:51.404Z,5.80
2017-12-13T14:45:18.839Z,5.80
2017-12-13T14:47:46.316Z,5.80
2017-12-13T14:50:13.778Z,5.80
2017-12-13T14:52:41.202Z,5.80
2017-12-13T14:55:08.626Z,5.80
2017-12-13T14:57:36.892Z,5.70
2017-12-13T15:00:04.315Z,5.70
2017-12-13T15:02:31.785Z,5.70
2017-12-13T15:04:59.631Z,5.70
2017-12-13T15:07:27.086Z,5.70
2017-12-13T15:09:54.565Z,5.60
2017-12-13T15:12:22.294Z,5.50
2017-12-13T15:14:49.731Z,5.50
2017-12-13T15:17:17.507Z,5.50
2017-12-13T15:19:44.985Z,5.50
2017-12-13T15:22:12.399Z,5.30
2017-12-13T15:24:39.890Z,5.30
2017-12-13T15:27:07.364Z,5.30
2017-12-13T15:29:34.853Z,5.30
2017-12-13T15:32:02.375Z,5.20
2017-12-13T15:34:29.855Z,5.20
2017-12-13T15:36:57.255Z,5.10
2017-12-13T15:39:24.710Z,5.10
2017-12-13T15:41:52.135Z,5.00
2017-12-13T15:44:20.363Z,4.80
2017-12-13T15:46:47.841Z,4.80
2017-12-13T15:49:15.658Z,4.70
2017-12-13T15:51:43.847Z,4.60
2017-12-13T15:54:11.407Z,4.60
2017-12-13T15:56:38.830Z,4.50
2017-12-13T15:59:07.095Z,4.30
2017-12-13T16:01:34.523Z,4.40
2017-12-13T16:04:02.009Z,4.30
2017-12-13T16:06:29.480Z,4.30
2017-12-13T16:08:57.668Z,4.10
2017-12-13T16:11:25.154Z,4.10
2017-12-13T16:13:52.634Z,4.10
2017-12-13T16:16:20.355Z,4.10
2017-12-13T16:18:47.824Z,4.10
2017-12-13T16:21:15.250Z,4.10
2017-12-13T16:23:42.791Z,4.10
2017-12-13T16:26:10.304Z,4.10
2017-12-13T16:28:38.279Z,4.00
2017-12-13T16:31:05.752Z,4.10
2017-12-13T16:33:33.899Z,4.00
2017-12-13T16:36:01.358Z,4.00
2017-12-13T16:38:28.832Z,4.00
2017-12-13T16:40:56.300Z,4.00
2017-12-13T16:43:23.731Z,4.00
2017-12-13T16:45:51.224Z,4.00
2017-12-13T16:48:18.643Z,4.00
2017-12-13T16:50:46.079Z,4.00
2017-12-13T16:53:13.559Z,4.10
2017-12-13T16:55:41.104Z,4.10
2017-12-13T16:58:08.570Z,4.10
2017-12-13T17:00:35.998Z,4.10
2017-12-13T17:03:03.480Z,4.10
2017-12-13T17:05:31.392Z,4.20
2017-12-13T17:07:58.960Z,4.20
2017-12-13T17:10:27.139Z,4.20
2017-12-13T17:12:55.390Z,4.20
2017-12-13T17:15:23.435Z,4.20
2017-12-13T17:17:51.028Z,4.20
2017-12-13T17:20:18.588Z,4.20
2017-12-13T17:22:48.173Z,4.30
2017-12-13T17:25:15.711Z,4.20
2017-12-13T17:27:43.181Z,4.20
2017-12-13T17:30:10.671Z,4.30
2017-12-13T17:32:38.228Z,4.30
2017-12-13T17:35:05.697Z,4.30
2017-12-13T17:37:33.881Z,4.40
2017-12-13T17:40:01.402Z,4.40
2017-12-13T17:42:28.825Z,4.40
2017-12-13T17:44:56.337Z,4.40
2017-12-13T17:47:23.756Z,4.40
2017-12-13T17:49:51.201Z,4.50
2017-12-13T17:52:18.642Z,4.40
2017-12-13T17:54:46.132Z,4.40
2017-12-13T17:57:13.552Z,4.40
2017-12-13T17:59:40.991Z,4.40
2017-12-13T18:02:08.481Z,4.40
2017-12-13T18:04:35.956Z,4.50
2017-12-13T18:07:03.416Z,4.50
2017-12-13T18:09:30.892Z,4.50
2017-12-13T18:11:58.310Z,4.50
2017-12-13T18:14:25.762Z,4.50
2017-12-13T18:16:53.206Z,4.60
2017-12-13T18:19:20.644Z,4.60
2017-12-13T18:21:48.108Z,4.60
2017-12-13T18:24:15.632Z,4.60
2017-12-13T18:26:43.150Z,4.60
2017-12-13T18:29:10.634Z,4.60
2017-12-13T18:31:38.094Z,4.60
2017-12-13T18:34:05.577Z,4.60
2017-12-13T18:36:33.801Z,4.70
2017-12-13T18:39:01.218Z,4.60
2017-12-13T18:41:28.711Z,4.70
2017-12-13T18:43:56.660Z,4.70
2017-12-13T18:46:24.142Z,4.80
2017-12-13T18:48:51.623Z,4.70
2017-12-13T18:51:19.047Z,4.70
2017-12-13T18:53:46.549Z,4.80
2017-12-13T18:56:14.012Z,4.70
2017-12-13T18:58:41.668Z,4.70
2017-12-13T19:01:09.222Z,4.80
2017-12-13T19:03:36.679Z,4.80
2017-12-13T19:06:04.107Z,4.90
2017-12-13T19:08:31.586Z,4.80
2017-12-13T19:10:59.135Z,4.70
2017-12-13T19:13:26.601Z,4.70
2017-12-13T19:15:54.079Z,4.70
2017-12-13T19:18:22.341Z,4.70
2017-12-13T19:20:49.812Z,4.70
2017-12-13T19:23:18.062Z,4.80
2017-12-13T19:25:45.801Z,4.80
2017-12-13T19:28:13.305Z,4.80
2017-12-13T19:30:40.965Z,4.80
2017-12-13T19:33:08.536Z,4.90
2017-12-13T19:35:36.073Z,5.00
2017-12-13T19:38:03.546Z,5.00
2017-12-13T19:40:31.970Z,5.10
2017-12-13T19:42:59.715Z,5.10
2017-12-13T19:45:27.525Z,5.20
2017-12-13T19:47:56.153Z,5.20
2017-12-13T19:50:24.510Z,5.30
2017-12-13T19:52:51.982Z,5.30
2017-12-13T19:55:20.209Z,5.40
2017-12-13T19:57:47.634Z,5.40
2017-12-13T20:00:15.450Z,5.40
2017-12-13T20:02:42.922Z,5.50
2017-12-13T20:05:11.182Z,5.50
2017-12-13T20:07:38.666Z,5.50
2017-12-13T20:10:06.875Z,5.60
2017-12-13T20:12:34.352Z,5.60
2017-12-13T20:15:15.658Z,5.60
2017-12-13T20:17:43.262Z,5.70
2017-12-13T20:20:10.785Z,5.70
2017-12-13T20:22:40.148Z,5.70
2017-12-13T20:25:08.457Z,5.70
2017-12-13T20:27:35.928Z,5.70
2017-12-13T20:30:04.245Z,5.80
2017-12-13T20:32:31.745Z,5.70
2017-12-13T20:34:59.161Z,5.80
2017-12-13T20:37:26.637Z,5.80
2017-12-13T20:39:54.063Z,5.80
2017-12-13T20:42:21.503Z,5.90
2017-12-13T20:44:49.042Z,5.90
2017-12-13T20:47:17.228Z,5.90
2017-12-13T20:49:44.769Z,5.80
2017-12-13T20:52:12.242Z,5.90
2017-12-13T20:54:40.513Z,5.90
2017-12-13T20:57:08.740Z,5.90
2017-12-13T20:59:36.214Z,5.90
2017-12-13T21:02:03.682Z,5.90
2017-12-13T21:04:31.103Z,5.80
2017-12-13T21:06:59.291Z,5.80
2017-12-13T21:09:27.184Z,5.80
2017-12-13T21:11:54.946Z,5.90
2017-12-13T21:14:23.192Z,5.90
2017-12-13T21:16:50.662Z,5.80
2017-12-13T21:19:18.229Z,5.90
2017-12-13T21:21:45.693Z,6.00
2017-12-13T21:24:13.166Z,5.90
2017-12-13T21:26:41.397Z,5.90
2017-12-13T21:29:08.867Z,5.90
2017-12-13T21:31:36.291Z,5.90
2017-12-13T21:34:03.774Z,5.90
2017-12-13T21:36:31.302Z,5.90
2017-12-13T21:38:58.739Z,5.80
2017-12-13T21:41:26.174Z,5.80
2017-12-13T21:43:53.659Z,5.80
2017-12-13T21:46:21.138Z,5.80
2017-12-13T21:48:48.569Z,5.90
2017-12-13T21:51:15.996Z,5.80
2017-12-13T21:53:44.236Z,5.70
2017-12-13T21:56:11.734Z,5.70
2017-12-13T21:58:39.965Z,5.60
2017-12-13T22:01:07.449Z,5.60
2017-12-13T22:03:35.021Z,5.60
2017-12-13T22:06:02.504Z,5.50
2017-12-13T22:08:29.974Z,5.50
2017-12-13T22:10:57.435Z,5.50
2017-12-13T22:13:24.905Z,5.40
2017-12-13T22:15:53.046Z,5.40
2017-12-13T22:18:20.559Z,5.30
2017-12-13T22:20:48.339Z,5.40
2017-12-13T22:23:15.804Z,5.40
2017-12-13T22:25:44.029Z,5.40
2017-12-13T22:28:11.501Z,5.40
2017-12-13T22:30:40.060Z,5.30
2017-12-13T22:33:07.564Z,5.30
2017-12-13T22:35:35.033Z,5.30
2017-12-13T22:38:03.268Z,5.20
2017-12-13T22:40:30.746Z,5.20
2017-12-13T22:42:58.209Z,5.20
2017-12-13T22:45:26.956Z,5.20
2017-12-13T22:47:55.141Z,5.10
2017-12-13T22:50:22.698Z,5.10
2017-12-13T22:52:51.082Z,5.10
2017-12-13T22:55:18.596Z,5.10
2017-12-13T22:57:46.134Z,5.10
2017-12-13T23:00:14.469Z,5.10
2017-12-13T23:02:41.960Z,5.10
2017-12-13T23:05:09.511Z,5.00
2017-12-13T23:07:36.934Z,5.00
2017-12-13T23:10:04.540Z,5.00
2017-12-13T23:12:32.765Z,5.00
2017-12-13T23:15:00.238Z,5.00
2017-12-13T23:17:27.674Z,5.00
2017-12-13T23:19:55.132Z,5.00
2017-12-13T23:22:22.569Z,5.00
2017-12-13T23:24:49.994Z,5.00
2017-12-13T23:27:18.196Z,5.10
2017-12-13T23:29:46.483Z,5.10
2017-12-13T23:32:13.915Z,5.10
2017-12-13T23:34:41.346Z,5.10
2017-12-13T23:37:09.574Z,5.10
2017-12-13T23:39:37.006Z,5.10
2017-12-13T23:42:04.442Z,5.20
2017-12-13T23:44:32.667Z,5.10
2017-12-13T23:47:00.103Z,5.10
2017-12-13T23:49:27.542Z,5.20
2017-12-13T23:51:54.972Z,5.20
2017-12-13T23:54:22.412Z,5.20
2017-12-13T23:56:49.955Z,5.20
2017-12-13T23:59:17.766Z,5.30
